Time;durP1;ratioP1;P1;durP2;ratioP2;P2;SDS_P1;SDS_P2;PMS_P1;PMS_P2;Temp;Humidity;BMP_temperature;BMP_pressure;BME280_temperature;BME280_humidity;BME280_pressure;Samples;Min_cycle;Max_cycle;Signal;HPM_P1;HPM_P2
2022/07/23 00:02:30;;;;;;;8.18;3.42;;;13.40;99.90;;;;;;5059415;28;20204;-74
2022/07/23 00:05:00;;;;;;;7.22;3.70;;;13.40;99.90;;;;;;5069188;28;20201;-73
2022/07/23 00:07:33;;;;;;;9.40;3.55;;;13.50;99.90;;;;;;5054529;28;20198;-71
2022/07/23 00:10:04;;;;;;;3.88;2.75;;;13.50;99.90;;;;;;5054762;28;20190;-72
2022/07/23 00:12:34;;;;;;;4.75;3.10;;;13.60;99.90;;;;;;5054573;28;20244;-79
2022/07/23 00:15:05;;;;;;;7.13;2.85;;;13.70;99.90;;;;;;5061764;28;20651;-76
2022/07/23 00:17:36;;;;;;;5.03;2.80;;;13.70;99.90;;;;;;5054396;28;20229;-72
2022/07/23 00:20:08;;;;;;;5.55;2.88;;;13.80;99.90;;;;;;5054412;28;20193;-71
2022/07/23 00:22:47;;;;;;;6.88;3.78;;;13.80;99.90;;;;;;5059816;28;20193;-73
2022/07/23 00:25:18;;;;;;;7.28;3.00;;;13.90;99.90;;;;;;5060237;28;20186;-72
2022/07/23 00:27:49;;;;;;;5.10;2.90;;;13.90;99.90;;;;;;5071942;28;20193;-72
2022/07/23 00:30:19;;;;;;;5.65;2.50;;;14.00;99.90;;;;;;5054235;28;20604;-72
2022/07/23 00:32:52;;;;;;;6.53;2.50;;;14.00;99.90;;;;;;5054236;28;20641;-73
2022/07/23 00:35:24;;;;;;;7.43;2.72;;;14.00;99.90;;;;;;5063387;28;20244;-73
2022/07/23 00:37:57;;;;;;;6.28;2.20;;;14.00;99.90;;;;;;5072670;28;20193;-72
2022/07/23 00:40:27;;;;;;;4.97;2.33;;;14.00;99.90;;;;;;5053998;28;20197;-71
2022/07/23 00:42:59;;;;;;;86.53;57.40;;;14.10;99.90;;;;;;5067031;28;20633;-73
2022/07/23 00:45:29;;;;;;;13.02;7.03;;;14.10;99.90;;;;;;5073507;28;20224;-71
2022/07/23 00:48:01;;;;;;;7.72;3.90;;;14.00;99.90;;;;;;5073840;28;20189;-71
2022/07/23 00:50:31;;;;;;;7.90;4.50;;;14.00;99.90;;;;;;5059890;28;20205;-71
2022/07/23 00:53:04;;;;;;;8.60;3.38;;;14.00;99.90;;;;;;5053973;28;20212;-71
2022/07/23 00:55:35;;;;;;;5.82;3.65;;;14.00;99.90;;;;;;5054711;28;20185;-71
2022/07/23 00:58:06;;;;;;;8.07;3.20;;;14.00;99.90;;;;;;5054871;28;20190;-73
2022/07/23 01:00:39;;;;;;;5.45;2.50;;;14.00;99.90;;;;;;5060835;28;20208;-72
2022/07/23 01:03:12;;;;;;;5.63;2.47;;;14.10;99.90;;;;;;5073446;28;20189;-72
2022/07/23 01:05:43;;;;;;;4.18;2.42;;;14.10;99.90;;;;;;5073271;28;20196;-72
2022/07/23 01:08:17;;;;;;;4.85;2.33;;;14.10;99.90;;;;;;5063321;28;20644;-72
2022/07/23 01:10:49;;;;;;;8.82;2.67;;;14.10;99.90;;;;;;5057583;28;20185;-71
2022/07/23 01:13:19;;;;;;;5.72;2.47;;;14.20;99.90;;;;;;5071695;28;20193;-75
2022/07/23 01:15:50;;;;;;;5.97;2.75;;;14.20;99.90;;;;;;5060999;28;20193;-71
2022/07/23 01:18:21;;;;;;;7.18;2.80;;;14.10;99.90;;;;;;5064732;28;20546;-71
2022/07/23 01:20:51;;;;;;;9.85;2.90;;;14.10;99.90;;;;;;5073301;28;20185;-92
2022/07/23 01:23:24;;;;;;;4.38;2.63;;;14.20;99.90;;;;;;5073826;28;20188;-90
2022/07/23 01:25:57;;;;;;;7.10;3.17;;;14.20;99.90;;;;;;5073796;28;20189;-85
2022/07/23 01:28:28;;;;;;;7.90;3.00;;;14.20;99.90;;;;;;5074176;28;20636;-90
2022/07/23 01:30:58;;;;;;;7.20;2.53;;;14.30;99.90;;;;;;5069978;28;20551;-86
2022/07/23 01:33:29;;;;;;;5.38;2.60;;;14.40;99.90;;;;;;5053473;28;20186;-90
2022/07/23 01:36:00;;;;;;;5.35;2.15;;;14.40;99.90;;;;;;5067589;28;20236;-90
2022/07/23 01:38:32;;;;;;;10.32;5.40;;;14.50;99.90;;;;;;5073617;28;20193;-89
2022/07/23 01:41:03;;;;;;;6.55;3.50;;;14.60;99.90;;;;;;5072460;28;20192;-90
2022/07/23 01:43:33;;;;;;;7.18;2.63;;;14.60;99.90;;;;;;5066178;28;20200;-91
2022/07/23 01:46:04;;;;;;;4.65;2.25;;;14.70;99.90;;;;;;5071478;28;20595;-95
2022/07/23 01:48:35;;;;;;;4.57;2.13;;;14.70;99.90;;;;;;5071370;28;20686;-88
2022/07/23 01:51:05;;;;;;;5.90;2.80;;;14.70;99.90;;;;;;5073195;28;20640;-90
2022/07/23 01:53:38;;;;;;;4.35;2.50;;;14.80;99.90;;;;;;5056307;28;20525;-89
2022/07/23 01:56:09;;;;;;;6.15;2.63;;;14.80;99.90;;;;;;5057540;28;20185;-89
2022/07/23 01:58:40;;;;;;;9.93;2.40;;;14.90;99.90;;;;;;5072624;28;20256;-88
2022/07/23 02:01:10;;;;;;;4.45;2.20;;;14.80;99.90;;;;;;5072631;28;20197;-88
2022/07/23 02:03:41;;;;;;;3.33;2.28;;;14.90;99.90;;;;;;5072447;28;20195;-86
2022/07/23 02:06:12;;;;;;;3.92;2.08;;;15.00;99.90;;;;;;5072621;28;20189;-87
2022/07/23 02:08:44;;;;;;;4.90;2.28;;;15.10;99.90;;;;;;5066004;28;20201;-88
2022/07/23 02:11:15;;;;;;;3.60;2.03;;;15.20;99.90;;;;;;5053917;28;20181;-86
2022/07/23 02:13:45;;;;;;;5.13;2.40;;;15.20;99.90;;;;;;5067710;28;20190;-87
2022/07/23 02:16:16;;;;;;;4.40;2.40;;;15.20;99.90;;;;;;5052203;28;20660;-86
2022/07/23 02:18:47;;;;;;;4.75;2.15;;;15.20;99.90;;;;;;5052310;28;20186;-87
2022/07/23 02:21:17;;;;;;;5.43;1.88;;;15.30;99.90;;;;;;5071444;28;20196;-87
2022/07/23 02:23:50;;;;;;;5.00;2.10;;;15.40;99.90;;;;;;5072360;28;20200;-83
2022/07/23 02:26:20;;;;;;;5.40;1.55;;;15.50;99.90;;;;;;5072560;28;20594;-86
2022/07/23 02:28:52;;;;;;;5.35;1.20;;;15.50;99.90;;;;;;5059589;28;20189;-87
2022/07/23 02:31:23;;;;;;;4.13;0.80;;;15.40;99.90;;;;;;5052396;28;20190;-84
2022/07/23 02:33:53;;;;;;;2.22;1.10;;;15.30;99.90;;;;;;5052051;28;20194;-89
2022/07/23 02:36:24;;;;;;;3.08;0.80;;;15.30;99.90;;;;;;5067926;28;20251;-83
2022/07/23 02:38:57;;;;;;;1.73;0.70;;;15.20;99.90;;;;;;5052407;28;20199;-86
2022/07/23 02:41:28;;;;;;;3.25;0.80;;;15.10;99.90;;;;;;5053310;28;20649;-84
2022/07/23 02:43:58;;;;;;;15.85;10.48;;;15.10;99.90;;;;;;5052328;28;20194;-90
2022/07/23 02:46:29;;;;;;;12.52;6.85;;;15.20;99.90;;;;;;5063332;28;20200;-86
2022/07/23 02:49:00;;;;;;;5.70;3.83;;;15.20;99.90;;;;;;5063623;28;20280;-84
2022/07/23 02:51:30;;;;;;;4.75;2.83;;;15.20;99.90;;;;;;5054013;28;20202;-86
2022/07/23 02:54:03;;;;;;;8.98;5.78;;;15.20;99.90;;;;;;5071995;28;20196;-86
2022/07/23 02:56:34;;;;;;;4.82;2.00;;;15.20;99.90;;;;;;5071884;28;20224;-86
2022/07/23 02:59:04;;;;;;;4.15;1.63;;;15.10;99.90;;;;;;5072101;28;20192;-85
2022/07/23 03:01:35;;;;;;;1.33;0.60;;;15.00;99.90;;;;;;5071917;28;20215;-86
2022/07/23 03:04:06;;;;;;;1.05;0.40;;;14.90;99.90;;;;;;5066129;28;20193;-86
2022/07/23 03:06:36;;;;;;;2.33;0.55;;;14.70;99.90;;;;;;5071990;28;20639;-86
2022/07/23 03:09:09;;;;;;;0.52;0.50;;;14.60;99.90;;;;;;5073883;28;20636;-86
2022/07/23 03:11:40;;;;;;;0.95;0.55;;;14.60;99.90;;;;;;5075357;28;20213;-80
2022/07/23 03:14:13;;;;;;;2.75;0.68;;;14.60;99.90;;;;;;5073819;28;20185;-83
2022/07/23 03:16:43;;;;;;;1.23;0.68;;;14.70;99.90;;;;;;5067204;28;20254;-87
2022/07/23 03:19:14;;;;;;;4.18;1.00;;;14.70;99.90;;;;;;5075074;28;20185;-87
2022/07/23 03:21:45;;;;;;;2.05;1.00;;;14.70;99.90;;;;;;5075450;28;20683;-87
2022/07/23 03:24:18;;;;;;;3.17;0.73;;;14.80;99.90;;;;;;5075265;28;20648;-87
2022/07/23 03:26:49;;;;;;;1.40;0.80;;;14.90;99.90;;;;;;5072845;28;20622;-87
2022/07/23 03:29:19;;;;;;;3.33;0.85;;;14.90;99.90;;;;;;5074989;28;20185;-87
2022/07/23 03:31:50;;;;;;;2.88;1.35;;;15.00;99.90;;;;;;5074939;28;20207;-89
2022/07/23 03:34:20;;;;;;;2.35;0.90;;;15.10;99.90;;;;;;5057502;28;20205;-87
2022/07/23 03:36:51;;;;;;;3.25;0.60;;;15.30;99.90;;;;;;5074816;28;20595;-88
2022/07/23 03:39:24;;;;;;;3.10;0.77;;;15.40;99.90;;;;;;5074790;28;20599;-89
2022/07/23 03:41:54;;;;;;;2.22;0.50;;;15.50;99.90;;;;;;5073002;28;20237;-86
2022/07/23 03:44:25;;;;;;;0.60;0.57;;;15.50;99.90;;;;;;5074423;28;20620;-88
2022/07/23 03:46:56;;;;;;;2.35;0.35;;;15.60;99.90;;;;;;5074847;28;20207;-86
2022/07/23 03:49:26;;;;;;;1.48;0.32;;;15.60;99.90;;;;;;5074679;28;20235;-89
2022/07/23 03:51:57;;;;;;;1.70;0.30;;;15.60;99.90;;;;;;5075024;28;20204;-90
2022/07/23 03:54:29;;;;;;;3.13;0.40;;;15.70;99.90;;;;;;5063432;28;20197;-88
2022/07/23 03:57:00;;;;;;;0.75;0.38;;;16.00;99.90;;;;;;5060878;28;20204;-88
2022/07/23 03:59:31;;;;;;;1.13;0.40;;;16.10;99.90;;;;;;5075064;28;20201;-89
2022/07/23 04:02:01;;;;;;;0.68;0.28;;;16.30;99.90;;;;;;5074465;28;20193;-85
2022/07/23 04:04:32;;;;;;;0.98;0.40;;;16.30;99.90;;;;;;5073840;28;20200;-84
2022/07/23 04:07:03;;;;;;;1.58;0.40;;;16.20;99.90;;;;;;5069580;28;20197;-86
2022/07/23 04:09:35;;;;;;;0.68;0.40;;;16.10;99.90;;;;;;5074674;28;20247;-88
2022/07/23 04:12:06;;;;;;;1.65;0.50;;;15.90;99.90;;;;;;5068425;28;20188;-73
2022/07/23 04:14:37;;;;;;;1.88;0.60;;;15.80;99.90;;;;;;5073292;28;20197;-71
2022/07/23 04:17:08;;;;;;;1.02;0.50;;;15.70;99.90;;;;;;5074164;28;20220;-74
2022/07/23 04:19:41;;;;;;;1.35;0.60;;;15.60;99.90;;;;;;5073333;28;20189;-76
2022/07/23 04:22:12;;;;;;;2.03;0.70;;;15.70;99.90;;;;;;5074328;28;20243;-71
2022/07/23 04:24:49;;;;;;;3.50;0.80;;;15.70;99.90;;;;;;5072820;28;20529;-71
2022/07/23 04:27:21;;;;;;;1.77;0.60;;;15.80;99.90;;;;;;5054238;28;20556;-77
2022/07/23 04:29:52;;;;;;;1.88;0.60;;;15.70;99.90;;;;;;5053851;28;20294;-74
2022/07/23 04:32:23;;;;;;;1.63;0.40;;;15.50;99.90;;;;;;5055364;28;20194;-73
2022/07/23 04:34:54;;;;;;;1.35;0.43;;;15.30;99.90;;;;;;5069747;28;20584;-77
2022/07/23 04:37:24;;;;;;;0.80;0.50;;;15.10;99.90;;;;;;5065936;28;20260;-72
2022/07/23 04:39:57;;;;;;;2.63;0.68;;;15.10;99.90;;;;;;5059275;28;20189;-72
2022/07/23 04:42:27;;;;;;;0.55;0.50;;;15.10;99.90;;;;;;5059189;28;20190;-72
2022/07/23 04:44:58;;;;;;;2.17;0.70;;;15.00;99.90;;;;;;5063597;28;20636;-71
2022/07/23 04:47:29;;;;;;;1.83;0.60;;;15.00;99.90;;;;;;5073578;28;20193;-76
2022/07/23 04:49:59;;;;;;;3.85;0.70;;;15.00;99.90;;;;;;5073568;28;20636;-76
2022/07/23 04:52:30;;;;;;;4.30;0.63;;;15.00;99.90;;;;;;5067341;28;20185;-72
2022/07/23 04:55:02;;;;;;;2.33;0.80;;;15.00;99.90;;;;;;5073309;28;20189;-75
2022/07/23 04:57:33;;;;;;;1.58;0.70;;;15.10;99.90;;;;;;5072699;28;20282;-72
2022/07/23 05:00:04;;;;;;;1.25;0.70;;;15.10;99.90;;;;;;5072795;28;20262;-75
2022/07/23 05:02:35;;;;;;;1.27;0.65;;;15.10;99.90;;;;;;5073355;28;20181;-72
2022/07/23 05:05:05;;;;;;;3.15;0.60;;;15.10;99.90;;;;;;5072457;28;20651;-74
2022/07/23 05:07:36;;;;;;;1.77;0.45;;;15.10;99.90;;;;;;5072729;28;20197;-71
2022/07/23 05:10:09;;;;;;;0.55;0.50;;;15.10;99.90;;;;;;5067299;28;20195;-75
2022/07/23 05:12:40;;;;;;;0.85;0.68;;;15.10;99.90;;;;;;5072954;28;20204;-72
2022/07/23 05:15:11;;;;;;;1.10;0.80;;;15.10;99.90;;;;;;5073522;28;20200;-93
2022/07/23 05:17:41;;;;;;;1.73;0.73;;;15.10;99.90;;;;;;5073573;28;20209;-80
2022/07/23 05:20:13;;;;;;;2.63;0.85;;;15.10;99.90;;;;;;5070813;28;20583;-95
2022/07/23 05:22:43;;;;;;;1.50;0.82;;;15.10;99.90;;;;;;5055266;28;20217;-94
2022/07/23 05:25:16;;;;;;;1.83;0.60;;;15.10;99.90;;;;;;5068680;28;20185;-86
2022/07/23 05:27:47;;;;;;;2.25;0.70;;;15.20;99.90;;;;;;5068757;28;20193;-94
2022/07/23 05:30:17;;;;;;;1.45;0.60;;;15.10;99.90;;;;;;5066242;28;20194;-93
2022/07/23 05:32:48;;;;;;;2.05;0.70;;;15.20;99.90;;;;;;5075522;28;20640;-93
2022/07/23 05:35:19;;;;;;;1.35;0.60;;;15.20;99.90;;;;;;5073260;28;20228;-90
2022/07/23 05:37:49;;;;;;;3.17;0.90;;;15.20;99.90;;;;;;5073563;28;20235;-90
2022/07/23 05:40:22;;;;;;;0.73;0.50;;;15.30;99.90;;;;;;5073608;28;20196;-91
2022/07/23 05:42:53;;;;;;;1.75;0.80;;;15.20;99.90;;;;;;5073152;28;20276;-91
2022/07/23 05:45:24;;;;;;;1.23;0.60;;;15.20;99.90;;;;;;5073177;28;20196;-88
2022/07/23 05:47:54;;;;;;;1.55;0.50;;;15.20;99.90;;;;;;5070526;28;20196;-87
2022/07/23 05:50:25;;;;;;;0.65;0.50;;;15.20;99.90;;;;;;5073189;28;20621;-90
2022/07/23 05:52:56;;;;;;;2.90;0.60;;;15.10;99.90;;;;;;5069771;28;20193;-91
2022/07/23 05:55:31;;;;;;;1.35;0.50;;;15.10;99.90;;;;;;5072473;28;20189;-89
2022/07/23 05:58:02;;;;;;;1.00;0.70;;;15.10;99.90;;;;;;5069895;28;20215;-89
2022/07/23 06:00:33;;;;;;;0.77;0.70;;;15.00;99.90;;;;;;5072951;28;20191;-88
2022/07/23 06:03:03;;;;;;;0.93;0.60;;;15.00;99.90;;;;;;5063568;28;20193;-88
2022/07/23 06:05:34;;;;;;;3.20;0.80;;;15.00;99.90;;;;;;5065326;28;20190;-88
2022/07/23 06:08:05;;;;;;;1.10;0.80;;;15.00;99.90;;;;;;5083923;28;20188;-87
2022/07/23 06:10:37;;;;;;;2.67;1.10;;;14.90;99.90;;;;;;5083922;28;20206;-89
2022/07/23 06:13:08;;;;;;;1.15;0.90;;;14.90;99.90;;;;;;5079812;28;20197;-77
2022/07/23 06:15:39;;;;;;;1.45;0.90;;;14.90;99.90;;;;;;5057247;28;20204;-87
2022/07/23 06:18:09;;;;;;;1.80;1.00;;;14.90;99.90;;;;;;5072428;28;20213;-87
2022/07/23 06:20:40;;;;;;;2.17;0.82;;;14.80;99.90;;;;;;5070854;28;20582;-80
2022/07/23 06:23:12;;;;;;;2.00;1.00;;;14.80;99.90;;;;;;5072597;28;20193;-71
2022/07/23 06:25:44;;;;;;;2.47;1.17;;;14.80;99.90;;;;;;5071522;28;20200;-87
2022/07/23 06:28:15;;;;;;;3.42;1.02;;;14.80;99.90;;;;;;5072383;28;20271;-88
2022/07/23 06:30:46;;;;;;;2.13;1.00;;;14.80;99.90;;;;;;5072515;28;20185;-87
2022/07/23 06:33:17;;;;;;;3.08;1.00;;;14.80;99.90;;;;;;5081612;28;20214;-85
2022/07/23 06:35:47;;;;;;;2.65;0.90;;;14.80;99.90;;;;;;5074172;28;20244;-87
2022/07/23 06:38:18;;;;;;;3.35;1.10;;;14.80;99.90;;;;;;5072149;28;20251;-86
2022/07/23 06:40:50;;;;;;;5.85;1.50;;;14.80;99.90;;;;;;5072080;28;20201;-86
2022/07/23 06:43:21;;;;;;;3.42;1.10;;;14.70;99.90;;;;;;5073884;28;20189;-87
2022/07/23 06:45:52;;;;;;;3.63;1.40;;;14.70;99.90;;;;;;5090552;28;20192;-86
2022/07/23 06:48:22;;;;;;;3.90;1.50;;;14.70;99.90;;;;;;5081279;28;20188;-76
2022/07/23 06:50:53;;;;;;;3.72;1.30;;;14.70;99.90;;;;;;5082914;28;20201;-84
2022/07/23 06:53:24;;;;;;;3.83;1.40;;;14.70;99.90;;;;;;5075669;28;20225;-84
2022/07/23 06:55:56;;;;;;;3.35;1.35;;;14.60;99.90;;;;;;5075764;28;20193;-86
2022/07/23 06:58:27;;;;;;;3.22;1.30;;;14.60;99.90;;;;;;5075839;28;20213;-86
2022/07/23 07:00:58;;;;;;;2.55;1.40;;;14.60;99.90;;;;;;5082390;28;20184;-86
2022/07/23 07:03:29;;;;;;;1.85;1.42;;;14.60;99.90;;;;;;5093430;28;20340;-85
2022/07/23 07:06:00;;;;;;;2.50;1.40;;;14.50;99.90;;;;;;5086376;28;20188;-80
2022/07/23 07:08:31;;;;;;;3.80;1.60;;;14.50;99.90;;;;;;5090559;28;20579;-86
2022/07/23 07:11:03;;;;;;;5.05;1.58;;;14.40;99.90;;;;;;5075682;28;20543;-82
2022/07/23 07:13:34;;;;;;;2.22;1.48;;;14.40;99.90;;;;;;5075481;28;20192;-84
2022/07/23 07:16:04;;;;;;;2.20;1.33;;;14.40;99.90;;;;;;5079544;28;20245;-86
2022/07/23 07:18:35;;;;;;;3.28;1.30;;;14.40;99.90;;;;;;5085338;28;20212;-86
2022/07/23 07:21:06;;;;;;;4.50;1.38;;;14.30;99.90;;;;;;5094047;28;20592;-86
2022/07/23 07:23:36;;;;;;;4.05;1.40;;;14.30;99.90;;;;;;5076549;28;20625;-86
2022/07/23 07:26:09;;;;;;;1.80;1.20;;;14.30;99.90;;;;;;5074770;28;20193;-86
2022/07/23 07:28:40;;;;;;;3.50;1.52;;;14.30;99.90;;;;;;5075372;28;20204;-84
2022/07/23 07:31:10;;;;;;;3.80;1.50;;;14.20;99.90;;;;;;5075349;28;20193;-83
2022/07/23 07:33:41;;;;;;;3.03;1.70;;;14.20;99.90;;;;;;5071987;28;20231;-85
2022/07/23 07:36:12;;;;;;;4.18;2.10;;;14.10;99.90;;;;;;5065371;28;20252;-84
2022/07/23 07:38:42;;;;;;;3.88;2.13;;;14.10;99.90;;;;;;5054942;28;20228;-84
2022/07/23 07:41:15;;;;;;;3.22;2.10;;;14.10;99.90;;;;;;5055627;28;20719;-85
2022/07/23 07:43:46;;;;;;;6.93;2.78;;;14.10;99.90;;;;;;5055114;28;20734;-86
2022/07/23 07:46:16;;;;;;;7.60;2.55;;;14.10;99.90;;;;;;5055010;28;20201;-85
2022/07/23 07:48:47;;;;;;;6.57;2.60;;;14.00;99.90;;;;;;5055093;28;20193;-85
2022/07/23 07:51:18;;;;;;;6.50;3.28;;;14.00;99.90;;;;;;5062293;28;20181;-85
2022/07/23 07:53:48;;;;;;;5.47;3.58;;;14.00;99.90;;;;;;5074511;28;20637;-85
2022/07/23 07:56:21;;;;;;;8.05;3.60;;;14.00;99.90;;;;;;5074914;28;20192;-82
2022/07/23 07:58:52;;;;;;;7.65;3.60;;;14.00;99.90;;;;;;5074633;28;20240;-76
2022/07/23 08:01:22;;;;;;;6.75;3.97;;;14.00;99.90;;;;;;5074739;28;20192;-74
2022/07/23 08:03:58;;;;;;;8.52;3.88;;;13.90;99.90;;;;;;5074699;28;20189;-71
2022/07/23 08:06:29;;;;;;;5.90;3.72;;;13.90;99.90;;;;;;5054419;28;20384;-74
2022/07/23 08:09:00;;;;;;;6.28;3.72;;;13.90;99.90;;;;;;5054696;28;20206;-73
2022/07/23 08:11:32;;;;;;;5.55;3.30;;;13.90;99.90;;;;;;5054599;28;20194;-71
2022/07/23 08:14:04;;;;;;;7.20;3.60;;;13.90;99.90;;;;;;5054642;28;20200;-76
2022/07/23 08:16:34;;;;;;;5.47;3.80;;;13.90;99.90;;;;;;5054506;28;20197;-71
2022/07/23 08:19:05;;;;;;;5.85;3.53;;;13.80;99.90;;;;;;5055464;28;20220;-75
2022/07/23 08:21:36;;;;;;;5.43;3.80;;;13.80;99.90;;;;;;5054240;28;20193;-71
2022/07/23 08:24:06;;;;;;;5.47;3.50;;;13.80;99.90;;;;;;5054321;28;20189;-72
2022/07/23 08:26:39;;;;;;;5.20;3.65;;;13.80;99.90;;;;;;5054314;28;20201;-71
2022/07/23 08:29:10;;;;;;;6.03;4.00;;;13.70;99.90;;;;;;5054299;28;20190;-71
2022/07/23 08:31:41;;;;;;;6.32;3.70;;;13.70;99.90;;;;;;5054222;28;20217;-72
2022/07/23 08:34:12;;;;;;;6.32;3.72;;;13.60;99.90;;;;;;5055701;28;20221;-71
2022/07/23 08:36:42;;;;;;;6.15;3.90;;;13.50;99.90;;;;;;5073631;28;20228;-80
2022/07/23 08:39:13;;;;;;;7.30;3.85;;;13.50;99.90;;;;;;5074000;28;20614;-71
2022/07/23 08:41:47;;;;;;;7.93;3.50;;;13.40;99.90;;;;;;5073736;28;20192;-72
2022/07/23 08:44:20;;;;;;;5.15;3.63;;;13.40;99.90;;;;;;5074213;28;20680;-71
2022/07/23 08:46:51;;;;;;;6.32;3.83;;;13.40;99.90;;;;;;5073869;28;20651;-71
2022/07/23 08:49:21;;;;;;;7.82;4.28;;;13.30;99.90;;;;;;5072504;28;20193;-72
2022/07/23 08:51:52;;;;;;;6.78;4.65;;;13.30;99.90;;;;;;5073816;28;20197;-71
2022/07/23 08:54:24;;;;;;;6.10;4.35;;;13.30;99.90;;;;;;5073563;28;20679;-71
2022/07/23 08:56:57;;;;;;;8.18;4.70;;;13.30;99.90;;;;;;5073739;28;20203;-74
2022/07/23 08:59:28;;;;;;;8.65;4.93;;;13.30;99.90;;;;;;5053491;28;20221;-72
2022/07/23 09:02:00;;;;;;;10.57;4.90;;;13.30;99.90;;;;;;5053750;28;20585;-72
2022/07/23 09:04:30;;;;;;;8.05;5.47;;;13.20;99.90;;;;;;5053585;28;20212;-72
2022/07/23 09:07:05;;;;;;;7.70;5.40;;;13.20;99.90;;;;;;5053195;28;20194;-80
2022/07/23 09:09:36;;;;;;;10.68;5.80;;;13.20;99.90;;;;;;5053755;28;20196;-81
2022/07/23 09:12:10;;;;;;;8.35;5.80;;;13.20;99.90;;;;;;5067174;28;20185;-82
2022/07/23 09:14:42;;;;;;;8.38;5.57;;;13.20;99.90;;;;;;5073432;28;20192;-81
2022/07/23 09:17:14;;;;;;;7.88;5.50;;;13.20;99.90;;;;;;5073294;28;20192;-81
2022/07/23 09:19:46;;;;;;;7.47;5.20;;;13.20;99.90;;;;;;5072941;28;20244;-83
2022/07/23 09:22:24;;;;;;;10.07;5.07;;;13.10;99.90;;;;;;5073247;28;20687;-81
2022/07/23 09:25:10;;;;;;;9.20;6.03;;;13.10;99.90;;;;;;5073032;28;20197;-81
2022/07/23 09:27:55;;;;;;;10.82;6.20;;;13.10;99.90;;;;;;5053116;28;20592;-81
2022/07/23 09:30:27;;;;;;;9.65;6.65;;;13.10;99.90;;;;;;5053179;28;20189;-82
2022/07/23 09:33:14;;;;;;;12.85;7.95;;;13.10;99.90;;;;;;5052955;28;20193;-82
2022/07/23 09:35:52;;;;;;;12.07;8.00;;;13.10;99.90;;;;;;5067113;28;20232;-81
2022/07/23 09:38:23;;;;;;;16.17;8.63;;;13.10;99.90;;;;;;5072810;28;20197;-80
2022/07/23 09:41:08;;;;;;;12.43;8.40;;;13.10;99.90;;;;;;5072251;28;20189;-81
2022/07/23 09:43:41;;;;;;;12.63;8.18;;;13.10;99.90;;;;;;5072758;28;20197;-82
2022/07/23 09:46:25;;;;;;;10.73;7.85;;;13.10;99.90;;;;;;5072767;28;20189;-81
2022/07/23 09:48:56;;;;;;;12.57;8.75;;;13.10;99.90;;;;;;5072744;28;20640;-81
2022/07/23 09:51:31;;;;;;;12.00;8.25;;;13.00;99.90;;;;;;5072756;28;20195;-81
2022/07/23 09:54:01;;;;;;;12.45;8.23;;;13.00;99.90;;;;;;5072773;28;20192;-80
2022/07/23 09:56:33;;;;;;;12.50;8.68;;;13.00;99.90;;;;;;5056945;28;20200;-80
2022/07/23 09:59:06;;;;;;;12.85;8.45;;;12.90;99.90;;;;;;5052713;28;20224;-81
2022/07/23 10:01:37;;;;;;;12.70;9.35;;;12.80;99.90;;;;;;5052508;28;20240;-81
2022/07/23 10:04:09;;;;;;;12.48;8.82;;;12.80;99.90;;;;;;5052589;28;20189;-82
2022/07/23 10:06:41;;;;;;;11.70;8.98;;;12.70;99.90;;;;;;5052582;28;20189;-82
2022/07/23 10:09:14;;;;;;;132.10;78.63;;;12.70;99.90;;;;;;5054841;28;20281;-83
2022/07/23 10:11:45;;;;;;;18.05;12.63;;;12.70;99.90;;;;;;5072528;28;20644;-82
2022/07/23 10:14:19;;;;;;;12.93;8.88;;;12.60;99.90;;;;;;5072413;28;20628;-76
2022/07/23 10:16:50;;;;;;;15.32;9.38;;;12.50;99.90;;;;;;5072312;28;20197;-79
2022/07/23 10:19:21;;;;;;;13.60;9.40;;;12.50;99.90;;;;;;5075821;28;20220;-82
2022/07/23 10:21:55;;;;;;;13.50;9.32;;;12.50;99.90;;;;;;5076650;28;20185;-80
2022/07/23 10:24:45;;;;;;;13.15;8.85;;;12.50;99.90;;;;;;5069907;28;20193;-81
2022/07/23 10:27:35;;;;;;;11.90;8.40;;;12.40;99.90;;;;;;5056578;28;20554;-82
2022/07/23 10:30:13;;;;;;;12.30;8.57;;;12.40;99.90;;;;;;5056572;28;20694;-82
2022/07/23 10:32:55;;;;;;;10.82;7.97;;;12.40;99.90;;;;;;5071147;28;20537;-82
2022/07/23 10:35:44;;;;;;;12.75;8.35;;;12.40;99.90;;;;;;5068195;28;20232;-82
2022/07/23 10:38:21;;;;;;;12.63;9.02;;;12.40;99.90;;;;;;5075562;28;20193;-83
2022/07/23 10:40:59;;;;;;;13.50;10.20;;;12.40;99.90;;;;;;5076296;28;20227;-81
2022/07/23 10:43:30;;;;;;;14.73;11.00;;;12.40;99.90;;;;;;5076218;28;20193;-81
2022/07/23 10:46:35;;;;;;;16.00;10.85;;;12.40;99.90;;;;;;5076051;28;20189;-80
2022/07/23 10:49:29;;;;;;;14.63;10.75;;;12.40;99.90;;;;;;5076174;28;20250;-82
2022/07/23 10:52:25;;;;;;;17.50;11.38;;;12.40;99.90;;;;;;5069848;28;20201;-81
2022/07/23 10:54:58;;;;;;;17.05;11.10;;;12.40;99.90;;;;;;5070845;28;20274;-82
2022/07/23 10:57:29;;;;;;;18.42;11.52;;;12.40;99.90;;;;;;5073442;28;20190;-82
2022/07/23 11:00:24;;;;;;;15.55;10.68;;;12.40;99.90;;;;;;5070687;28;20213;-82
2022/07/23 11:02:58;;;;;;;14.80;10.70;;;12.40;99.90;;;;;;5075832;28;20200;-83
2022/07/23 11:05:41;;;;;;;16.17;10.82;;;12.30;99.90;;;;;;5075931;28;20196;-82
2022/07/23 11:08:17;;;;;;;13.85;9.88;;;12.30;99.90;;;;;;5075856;28;20750;-82
2022/07/23 11:10:51;;;;;;;13.50;9.32;;;12.30;99.90;;;;;;5063486;28;20196;-82
2022/07/23 11:13:39;;;;;;;16.70;9.68;;;12.30;99.90;;;;;;5055891;28;20190;-83
2022/07/23 11:16:16;;;;;;;12.07;9.07;;;12.40;99.90;;;;;;5055335;28;20201;-82
2022/07/23 11:19:08;;;;;;;14.77;8.98;;;12.30;99.90;;;;;;5056200;28;20189;-83
2022/07/23 11:21:51;;;;;;;14.63;9.02;;;12.30;99.90;;;;;;5055657;28;20639;-83
2022/07/23 11:24:32;;;;;;;17.85;10.27;;;12.30;99.90;;;;;;5061360;28;20197;-81
2022/07/23 11:27:05;;;;;;;13.15;9.80;;;12.30;99.90;;;;;;5060288;28;20186;-81
2022/07/23 11:29:46;;;;;;;17.95;12.63;;;12.30;99.90;;;;;;5074712;28;20227;-82
2022/07/23 11:32:40;;;;;;;16.88;10.05;;;12.30;99.90;;;;;;5074115;28;20192;-81
2022/07/23 11:35:27;;;;;;;16.48;10.88;;;12.20;99.90;;;;;;5069141;28;20681;-83
2022/07/23 11:38:05;;;;;;;14.10;10.20;;;12.20;99.90;;;;;;5055380;28;20193;-82
2022/07/23 11:40:36;;;;;;;14.55;10.73;;;12.20;99.90;;;;;;5054791;28;20221;-80
2022/07/23 11:43:09;;;;;;;18.13;10.32;;;12.30;99.90;;;;;;5054716;28;20190;-83
2022/07/23 11:45:41;;;;;;;13.98;8.68;;;12.20;99.90;;;;;;5055182;28;20200;-82
2022/07/23 11:48:18;;;;;;;12.27;8.35;;;12.30;99.90;;;;;;5054998;28;20190;-82
2022/07/23 11:50:51;;;;;;;12.73;7.65;;;12.20;99.90;;;;;;5054953;28;20194;-82
2022/07/23 11:53:33;;;;;;;11.38;7.93;;;12.30;99.90;;;;;;5054794;28;20193;-81
2022/07/23 11:56:08;;;;;;;14.18;8.25;;;12.20;99.90;;;;;;5053940;28;20189;-82
2022/07/23 11:58:39;;;;;;;12.65;8.00;;;12.20;99.90;;;;;;5054215;28;20633;-81
2022/07/23 12:01:09;;;;;;;12.40;8.20;;;12.20;99.90;;;;;;5054430;28;20213;-84
2022/07/23 12:03:50;;;;;;;13.18;8.40;;;12.20;99.90;;;;;;5054419;28;20194;-82
2022/07/23 12:06:23;;;;;;;10.93;8.48;;;12.10;99.90;;;;;;5054645;28;20215;-82
2022/07/23 12:08:53;;;;;;;11.27;8.48;;;12.10;99.90;;;;;;5054597;28;20190;-84
2022/07/23 12:11:24;;;;;;;13.13;8.30;;;12.20;99.90;;;;;;5055387;28;20198;-83
2022/07/23 12:14:01;;;;;;;10.10;7.50;;;12.20;99.90;;;;;;5069796;28;20635;-84
2022/07/23 12:16:31;;;;;;;9.27;7.32;;;12.20;99.90;;;;;;5074909;28;20200;-85
2022/07/23 12:19:02;;;;;;;11.57;7.18;;;12.20;99.90;;;;;;5059029;28;20189;-83
2022/07/23 12:21:35;;;;;;;10.38;6.88;;;12.30;99.90;;;;;;5072941;28;20212;-84
2022/07/23 12:24:11;;;;;;;13.82;7.78;;;12.30;99.90;;;;;;5074195;28;20189;-83
2022/07/23 12:26:42;;;;;;;11.10;7.55;;;12.40;99.90;;;;;;5074072;28;20204;-84
2022/07/23 12:29:13;;;;;;;11.15;7.35;;;12.40;99.90;;;;;;5073044;28;20185;-84
2022/07/23 12:31:43;;;;;;;10.30;7.63;;;12.50;99.90;;;;;;5071514;28;20600;-84
2022/07/23 12:34:18;;;;;;;9.95;7.10;;;12.40;99.90;;;;;;5073265;28;20216;-72
2022/07/23 12:36:51;;;;;;;11.63;8.10;;;12.40;99.90;;;;;;5071567;28;20282;-72
2022/07/23 12:39:33;;;;;;;11.50;7.78;;;12.40;99.90;;;;;;5073597;28;20200;-72
2022/07/23 12:42:04;;;;;;;11.45;7.55;;;12.50;99.90;;;;;;5072691;28;20648;-75
2022/07/23 12:44:35;;;;;;;11.98;7.63;;;12.40;99.90;;;;;;5073361;28;20191;-76
2022/07/23 12:47:08;;;;;;;12.25;7.78;;;12.50;99.90;;;;;;5073763;28;20193;-71
2022/07/23 12:49:40;;;;;;;12.27;7.85;;;12.40;99.90;;;;;;5073083;28;20189;-73
2022/07/23 12:52:21;;;;;;;13.38;7.65;;;12.40;99.90;;;;;;5073800;28;20276;-72
2022/07/23 12:54:52;;;;;;;12.40;7.93;;;12.40;99.90;;;;;;5061754;28;20201;-71
2022/07/23 12:57:42;;;;;;;13.10;7.78;;;12.40;99.90;;;;;;5070646;28;20189;-74
2022/07/23 13:00:14;;;;;;;13.38;7.93;;;12.40;99.90;;;;;;5072073;28;20220;-84
2022/07/23 13:02:49;;;;;;;12.52;7.20;;;12.40;99.90;;;;;;5073168;28;20193;-77
2022/07/23 13:05:20;;;;;;;12.35;7.93;;;12.30;99.90;;;;;;5072997;28;20185;-86
2022/07/23 13:07:52;;;;;;;13.20;8.10;;;12.30;99.90;;;;;;5068411;28;20633;-83
2022/07/23 13:10:23;;;;;;;12.15;7.93;;;12.30;99.90;;;;;;5072701;28;20185;-83
2022/07/23 13:12:54;;;;;;;10.65;7.55;;;12.30;99.90;;;;;;5073124;28;20181;-84